createdAt,value
2018-07-12T00:00:06.884Z,66.73
2018-07-12T00:02:34.177Z,67.05
2018-07-12T00:05:01.454Z,66.87
2018-07-12T00:07:28.729Z,66.96
2018-07-12T00:09:56.048Z,67.38
2018-07-12T00:12:23.735Z,67.20
2018-07-12T00:14:51.029Z,67.36
2018-07-12T00:17:18.354Z,67.80
2018-07-12T00:19:45.630Z,67.99
2018-07-12T00:22:13.029Z,67.77
2018-07-12T00:24:40.317Z,67.92
2018-07-12T00:27:07.586Z,67.96
2018-07-12T00:29:35.026Z,68.35
2018-07-12T00:32:02.313Z,68.01
2018-07-12T00:34:29.581Z,68.48
2018-07-12T00:36:57.289Z,67.99
2018-07-12T00:39:24.558Z,68.52
2018-07-12T00:41:51.833Z,68.25
2018-07-12T00:44:19.419Z,68.59
2018-07-12T00:46:46.853Z,68.22
2018-07-12T00:49:14.239Z,68.21
2018-07-12T00:51:41.525Z,68.79
2018-07-12T00:54:09.293Z,68.30
2018-07-12T00:56:36.893Z,68.89
2018-07-12T00:59:04.170Z,68.58
2018-07-12T01:01:31.565Z,68.44
2018-07-12T01:03:59.005Z,68.71
2018-07-12T01:06:26.289Z,68.64
2018-07-12T01:08:53.580Z,68.84
2018-07-12T01:11:21.031Z,68.61
2018-07-12T01:13:48.309Z,68.19
2018-07-12T01:16:15.579Z,68.34
2018-07-12T01:18:43.437Z,68.38
2018-07-12T01:21:10.989Z,68.32
2018-07-12T01:23:38.532Z,67.84
2018-07-12T01:26:05.975Z,67.93
2018-07-12T01:28:33.425Z,68.29
2018-07-12T01:31:00.898Z,68.20
2018-07-12T01:33:28.181Z,68.29
2018-07-12T01:35:55.590Z,67.80
2018-07-12T01:38:23.202Z,67.96
2018-07-12T01:40:50.677Z,67.92
2018-07-12T01:43:17.965Z,68.52
2018-07-12T01:45:45.485Z,68.11
2018-07-12T01:48:13.003Z,67.87
2018-07-12T01:50:40.453Z,67.95
2018-07-12T01:53:08.169Z,67.67
2018-07-12T01:55:35.441Z,67.91
2018-07-12T01:58:03.002Z,67.93
2018-07-12T02:00:30.348Z,67.65
2018-07-12T02:02:57.615Z,67.57
2018-07-12T02:05:24.889Z,68.21
2018-07-12T02:07:52.162Z,68.20
2018-07-12T02:10:19.437Z,67.86
2018-07-12T02:12:47.289Z,68.25
2018-07-12T02:15:14.585Z,68.21
2018-07-12T02:17:41.869Z,67.81
2018-07-12T02:20:09.547Z,67.81
2018-07-12T02:22:36.850Z,67.69
2018-07-12T02:25:04.122Z,68.08
2018-07-12T02:27:31.666Z,67.25
2018-07-12T02:29:59.590Z,67.13
2018-07-12T02:32:27.235Z,67.07
2018-07-12T02:34:54.516Z,67.13
2018-07-12T02:37:21.817Z,66.89
2018-07-12T02:39:49.132Z,67.09
2018-07-12T02:42:16.417Z,66.75
2018-07-12T02:44:43.749Z,66.99
2018-07-12T02:47:11.353Z,66.72
2018-07-12T02:49:38.622Z,67.29
2018-07-12T02:52:06.046Z,66.92
2018-07-12T02:54:33.694Z,66.70
2018-07-12T02:57:00.972Z,66.66
2018-07-12T02:59:28.802Z,66.33
2018-07-12T03:01:56.415Z,66.76
2018-07-12T03:04:23.691Z,67.04
2018-07-12T03:06:51.006Z,66.60
2018-07-12T03:09:18.445Z,66.58
2018-07-12T03:11:45.732Z,66.27
2018-07-12T03:14:13.034Z,66.64
2018-07-12T03:16:40.497Z,66.62
2018-07-12T03:19:07.771Z,66.06
2018-07-12T03:21:35.478Z,66.58
2018-07-12T03:24:02.750Z,66.53
2018-07-12T03:26:30.014Z,66.39
2018-07-12T03:28:57.317Z,66.21
2018-07-12T03:31:24.589Z,66.10
2018-07-12T03:33:51.862Z,65.69
2018-07-12T03:36:19.489Z,65.69
2018-07-12T03:38:47.233Z,65.50
2018-07-12T03:41:14.509Z,66.04
2018-07-12T03:43:41.789Z,66.05
2018-07-12T03:46:09.293Z,65.74
2018-07-12T03:48:36.565Z,66.20
2018-07-12T03:51:03.861Z,66.31
2018-07-12T03:53:32.287Z,65.69
2018-07-12T03:55:59.565Z,65.68
2018-07-12T03:58:26.860Z,65.35
2018-07-12T04:00:54.606Z,65.74
2018-07-12T04:03:21.893Z,65.90
2018-07-12T04:05:49.201Z,65.40
2018-07-12T04:08:16.798Z,66.05
2018-07-12T04:10:44.490Z,65.76
2018-07-12T04:13:11.809Z,65.45
2018-07-12T04:15:39.081Z,65.81
2018-07-12T04:18:06.348Z,65.88
2018-07-12T04:20:33.645Z,65.70
2018-07-12T04:23:00.913Z,65.04
2018-07-12T04:25:28.181Z,64.87
2018-07-12T04:27:56.017Z,64.94
2018-07-12T04:30:23.299Z,64.40
2018-07-12T04:32:50.572Z,64.65
2018-07-12T04:35:18.146Z,64.36
2018-07-12T04:37:45.439Z,64.01
2018-07-12T04:40:12.729Z,63.89
2018-07-12T04:42:40.510Z,64.00
2018-07-12T04:45:07.949Z,64.04
2018-07-12T04:47:35.221Z,63.79
2018-07-12T04:50:02.513Z,63.51
2018-07-12T04:52:29.999Z,63.32
2018-07-12T04:54:57.273Z,63.33
2018-07-12T04:57:24.579Z,62.59
2018-07-12T04:59:52.173Z,62.74
2018-07-12T05:02:20.091Z,62.26
2018-07-12T05:04:47.385Z,62.42
2018-07-12T05:07:14.656Z,61.99
2018-07-12T05:09:41.929Z,61.79
2018-07-12T05:12:09.229Z,61.64
2018-07-12T05:14:36.552Z,61.19
2018-07-12T05:17:03.952Z,61.82
2018-07-12T05:19:31.438Z,61.59
2018-07-12T05:21:58.754Z,61.09
2018-07-12T05:24:26.031Z,61.03
2018-07-12T05:26:53.844Z,60.80
2018-07-12T05:29:21.121Z,61.14
2018-07-12T05:31:48.400Z,60.88
2018-07-12T05:34:15.861Z,60.81
2018-07-12T05:36:52.611Z,60.51
2018-07-12T05:39:21.582Z,60.45
2018-07-12T05:41:50.926Z,60.68
2018-07-12T05:44:19.639Z,60.26
2018-07-12T05:46:48.842Z,59.72
2018-07-12T05:49:17.881Z,60.05
2018-07-12T05:51:47.253Z,59.95
2018-07-12T05:54:17.090Z,59.94
2018-07-12T05:56:45.712Z,60.11
2018-07-12T05:59:14.425Z,60.13
2018-07-12T06:01:54.751Z,60.22
2018-07-12T06:04:23.682Z,59.91
2018-07-12T06:06:52.529Z,59.78
2018-07-12T06:09:21.433Z,59.57
2018-07-12T06:11:49.899Z,59.16
2018-07-12T06:14:18.593Z,58.88
2018-07-12T06:16:47.601Z,59.04
2018-07-12T06:19:16.049Z,59.41
2018-07-12T06:21:44.661Z,59.03
2018-07-12T06:24:13.658Z,58.90
2018-07-12T06:26:42.899Z,58.84
2018-07-12T06:29:18.251Z,58.81
2018-07-12T06:31:47.067Z,59.09
2018-07-12T06:34:15.505Z,58.92
2018-07-12T06:36:44.337Z,58.65
2018-07-12T06:39:13.101Z,58.70
2018-07-12T06:41:42.590Z,58.78
2018-07-12T06:44:11.426Z,58.93
2018-07-12T06:46:40.276Z,58.32
2018-07-12T06:49:08.747Z,57.94
2018-07-12T06:51:37.258Z,58.20
2018-07-12T06:54:06.194Z,58.12
2018-07-12T06:56:34.843Z,57.85
2018-07-12T06:59:03.438Z,57.53
2018-07-12T07:01:31.880Z,57.32
2018-07-12T07:04:00.637Z,56.83
2018-07-12T07:06:29.742Z,56.80
2018-07-12T07:08:58.209Z,56.38
2018-07-12T07:11:27.384Z,56.40
2018-07-12T07:13:56.218Z,55.71
2018-07-12T07:16:24.677Z,55.40
2018-07-12T07:18:53.306Z,55.68
2018-07-12T07:21:22.213Z,54.76
2018-07-12T07:23:50.726Z,54.46
2018-07-12T07:26:19.259Z,54.33
2018-07-12T07:28:48.273Z,54.05
2018-07-12T07:31:16.776Z,53.46
2018-07-12T07:33:45.425Z,53.09
2018-07-12T07:36:14.041Z,52.98
2018-07-12T07:38:42.514Z,52.85
2018-07-12T07:41:11.453Z,52.59
2018-07-12T07:43:40.099Z,51.55
2018-07-12T07:46:08.849Z,50.58
2018-07-12T07:48:37.312Z,49.43
2018-07-12T07:51:06.235Z,47.16
2018-07-12T07:53:34.909Z,46.26
2018-07-12T07:56:03.413Z,44.83
2018-07-12T07:58:32.273Z,43.03
2018-07-12T08:01:00.729Z,41.95
2018-07-12T08:03:29.764Z,40.63
2018-07-12T08:05:58.571Z,40.45
2018-07-12T08:08:27.162Z,39.87
2018-07-12T08:10:56.073Z,38.84
2018-07-12T08:13:24.933Z,38.60
2018-07-12T08:15:53.371Z,39.49
2018-07-12T08:18:22.130Z,38.97
2018-07-12T08:20:51.065Z,38.81
2018-07-12T08:23:19.530Z,38.83
2018-07-12T08:25:48.101Z,37.31
2018-07-12T08:28:26.712Z,36.28
2018-07-12T08:30:55.678Z,36.32
2018-07-12T08:33:25.015Z,35.84
2018-07-12T08:35:54.026Z,37.02
2018-07-12T08:38:22.508Z,38.32
2018-07-12T08:40:51.037Z,37.14
2018-07-12T08:43:19.705Z,37.09
2018-07-12T08:45:48.402Z,35.46
2018-07-12T08:48:17.070Z,35.58
2018-07-12T08:50:45.814Z,35.70
2018-07-12T08:53:14.812Z,34.87
2018-07-12T08:55:43.616Z,34.86
2018-07-12T08:58:13.538Z,35.23
2018-07-12T09:00:42.542Z,34.64
2018-07-12T09:03:11.061Z,34.84
2018-07-12T09:05:39.921Z,34.94
2018-07-12T09:08:08.358Z,35.70
2018-07-12T09:10:37.501Z,35.67
2018-07-12T09:13:06.269Z,35.91
2018-07-12T09:15:34.775Z,35.68
2018-07-12T09:18:03.402Z,35.36
2018-07-12T09:20:32.005Z,34.48
2018-07-12T09:23:00.764Z,34.01
2018-07-12T09:25:29.491Z,32.94
2018-07-12T09:27:59.081Z,32.41
2018-07-12T09:30:27.625Z,30.59
2018-07-12T09:32:56.469Z,30.78
2018-07-12T09:35:25.576Z,30.95
2018-07-12T09:37:54.145Z,30.26
2018-07-12T09:40:22.841Z,29.88
2018-07-12T09:42:51.762Z,29.95
2018-07-12T09:45:20.288Z,30.03
2018-07-12T09:47:48.890Z,29.86
2018-07-12T09:50:18.083Z,30.66
2018-07-12T09:52:46.555Z,30.40
2018-07-12T09:55:14.997Z,29.25
2018-07-12T09:57:54.881Z,30.22
2018-07-12T10:00:28.882Z,30.71
2018-07-12T10:04:00.145Z,31.30
2018-07-12T10:06:32.942Z,30.84
2018-07-12T10:09:06.763Z,30.48
2018-07-12T10:11:41.185Z,31.17
2018-07-12T10:14:15.309Z,29.45
2018-07-12T10:16:45.101Z,29.01
2018-07-12T10:19:13.866Z,27.89
2018-07-12T10:21:42.346Z,27.94
2018-07-12T10:24:11.113Z,27.16
2018-07-12T10:26:39.926Z,27.82
2018-07-12T10:29:08.739Z,27.32
2018-07-12T10:31:37.561Z,26.64
2018-07-12T10:34:06.385Z,27.50
2018-07-12T10:36:35.174Z,28.02
2018-07-12T10:39:04.201Z,28.44
2018-07-12T10:41:32.944Z,27.85
2018-07-12T10:44:01.442Z,27.80
2018-07-12T10:46:30.601Z,28.45
2018-07-12T10:48:59.330Z,28.56
2018-07-12T10:51:28.047Z,28.00
2018-07-12T10:53:57.254Z,28.67
2018-07-12T10:56:25.685Z,28.54
2018-07-12T10:58:54.270Z,29.15
2018-07-12T11:01:23.634Z,28.62
2018-07-12T11:03:52.263Z,27.57
2018-07-12T11:06:20.927Z,27.86
2018-07-12T11:08:49.913Z,29.41
2018-07-12T11:11:18.363Z,28.71
2018-07-12T11:13:49.770Z,29.55
2018-07-12T11:16:18.729Z,29.74
2018-07-12T11:18:47.193Z,30.01
2018-07-12T11:21:15.963Z,30.00
2018-07-12T11:23:44.920Z,31.12
2018-07-12T11:26:13.862Z,30.78
2018-07-12T11:28:42.742Z,30.36
2018-07-12T11:31:12.634Z,29.72
2018-07-12T11:33:43.650Z,29.63
2018-07-12T11:36:12.613Z,29.17
2018-07-12T11:38:42.689Z,29.10
2018-07-12T11:41:11.726Z,29.18
2018-07-12T11:43:41.016Z,28.93
2018-07-12T11:46:10.722Z,29.38
2018-07-12T11:48:40.812Z,28.59
2018-07-12T11:51:09.601Z,28.97
2018-07-12T11:53:38.225Z,29.41
2018-07-12T11:56:07.213Z,28.72
2018-07-12T11:58:35.665Z,27.77
2018-07-12T12:01:04.702Z,28.57
2018-07-12T12:03:33.653Z,27.54
2018-07-12T12:06:02.621Z,28.22
2018-07-12T12:08:31.557Z,28.47
2018-07-12T12:11:00.085Z,27.84
2018-07-12T12:13:28.769Z,29.20
2018-07-12T12:15:57.621Z,28.34
2018-07-12T12:18:26.109Z,28.50
2018-07-12T12:20:54.795Z,28.11
2018-07-12T12:23:23.677Z,28.24
2018-07-12T12:25:52.141Z,27.79
2018-07-12T12:28:20.583Z,27.21
2018-07-12T12:30:49.717Z,27.61
2018-07-12T12:33:18.176Z,27.70
2018-07-12T12:35:46.667Z,29.20
2018-07-12T12:38:16.190Z,29.04
2018-07-12T12:40:44.657Z,29.50
2018-07-12T12:43:13.109Z,29.52
2018-07-12T12:45:42.857Z,30.59
2018-07-12T12:48:11.623Z,30.32
2018-07-12T12:50:40.457Z,30.24
2018-07-12T12:53:09.430Z,30.85
2018-07-12T12:55:37.900Z,30.88
2018-07-12T12:58:06.393Z,30.73
2018-07-12T13:00:35.597Z,30.53
2018-07-12T13:03:04.128Z,30.85
2018-07-12T13:05:32.579Z,31.40
2018-07-12T13:08:01.559Z,31.22
2018-07-12T13:10:30.044Z,31.31
2018-07-12T13:12:58.537Z,30.72
2018-07-12T13:15:27.617Z,30.75
2018-07-12T13:17:56.425Z,31.07
2018-07-12T13:20:24.866Z,30.97
2018-07-12T13:22:53.654Z,31.04
2018-07-12T13:25:22.156Z,30.64
2018-07-12T13:27:51.007Z,30.99
2018-07-12T13:30:20.403Z,31.03
2018-07-12T13:32:48.877Z,30.99
2018-07-12T13:35:17.518Z,30.81
2018-07-12T13:37:46.190Z,31.27
2018-07-12T13:40:15.270Z,30.96
2018-07-12T13:42:43.733Z,31.14
2018-07-12T13:45:12.287Z,31.34
2018-07-12T13:47:41.013Z,30.62
2018-07-12T13:50:09.472Z,30.82
2018-07-12T13:52:38.451Z,31.17
2018-07-12T13:55:07.095Z,31.12
2018-07-12T13:57:36.013Z,32.42
2018-07-12T14:00:05.165Z,31.58
2018-07-12T14:02:33.701Z,30.71
2018-07-12T14:05:02.374Z,30.91
2018-07-12T14:07:30.805Z,30.81
2018-07-12T14:09:59.285Z,31.35
2018-07-12T14:12:27.715Z,31.36
2018-07-12T14:14:56.658Z,30.65
2018-07-12T14:17:25.127Z,31.26
2018-07-12T14:19:53.578Z,31.79
2018-07-12T14:22:22.403Z,31.81
2018-07-12T14:24:50.892Z,31.57
2018-07-12T14:27:19.334Z,32.31
2018-07-12T14:29:48.178Z,32.32
2018-07-12T14:32:17.025Z,31.96
2018-07-12T14:34:45.703Z,32.29
2018-07-12T14:37:14.149Z,31.27
2018-07-12T14:39:42.925Z,30.88
2018-07-12T14:42:11.541Z,30.97
2018-07-12T14:44:40.001Z,30.62
2018-07-12T14:47:09.021Z,31.46
2018-07-12T14:49:37.465Z,31.18
2018-07-12T14:52:06.632Z,31.09
2018-07-12T14:54:35.934Z,31.51
2018-07-12T14:57:04.361Z,31.47
2018-07-12T14:59:32.999Z,31.75
2018-07-12T15:02:01.850Z,31.97
2018-07-12T15:04:30.317Z,31.51
2018-07-12T15:06:59.056Z,32.14
2018-07-12T15:09:28.135Z,31.46
2018-07-12T15:11:56.597Z,32.25
2018-07-12T15:14:25.065Z,32.19
2018-07-12T15:16:53.663Z,32.59
2018-07-12T15:19:22.132Z,32.57
2018-07-12T15:21:50.567Z,31.95
2018-07-12T15:24:19.060Z,31.76
2018-07-12T15:26:47.510Z,31.85
2018-07-12T15:29:16.674Z,32.27
2018-07-12T15:31:45.141Z,31.82
2018-07-12T15:34:13.875Z,32.12
2018-07-12T15:36:42.669Z,32.03
2018-07-12T15:39:11.122Z,32.22
2018-07-12T15:41:40.095Z,32.91
2018-07-12T15:44:09.387Z,33.11
2018-07-12T15:46:37.853Z,33.13
2018-07-12T15:49:06.526Z,33.25
2018-07-12T15:51:35.482Z,33.33
2018-07-12T15:54:04.608Z,32.97
2018-07-12T15:56:33.338Z,33.52
2018-07-12T15:59:02.071Z,33.04
2018-07-12T16:01:30.609Z,33.71
2018-07-12T16:03:59.039Z,33.90
2018-07-12T16:06:27.813Z,33.58
2018-07-12T16:08:56.697Z,33.62
2018-07-12T16:11:25.163Z,33.71
2018-07-12T16:13:53.873Z,33.61
2018-07-12T16:16:22.937Z,33.47
2018-07-12T16:18:51.377Z,33.90
2018-07-12T16:21:21.579Z,33.80
2018-07-12T16:23:50.646Z,33.83
2018-07-12T16:26:19.533Z,33.49
2018-07-12T16:28:48.232Z,33.59
2018-07-12T16:31:16.797Z,31.85
2018-07-12T16:33:45.830Z,31.28
2018-07-12T16:36:14.500Z,30.94
2018-07-12T16:38:43.010Z,30.46
2018-07-12T16:41:14.885Z,29.95
2018-07-12T16:43:43.459Z,29.04
2018-07-12T16:46:12.347Z,28.82
2018-07-12T16:48:41.095Z,28.99
2018-07-12T16:51:09.653Z,28.67
2018-07-12T16:53:38.331Z,28.22
2018-07-12T16:56:06.821Z,27.85
2018-07-12T16:58:36.365Z,27.79
2018-07-12T17:01:04.881Z,27.74
2018-07-12T17:03:33.568Z,27.98
2018-07-12T17:06:02.030Z,28.31
2018-07-12T17:08:30.481Z,29.18
2018-07-12T17:10:58.921Z,29.14
2018-07-12T17:13:27.565Z,30.47
2018-07-12T17:15:56.385Z,30.94
2018-07-12T17:18:24.825Z,31.51
2018-07-12T17:20:53.457Z,32.60
2018-07-12T17:23:22.454Z,33.42
2018-07-12T17:25:50.907Z,34.10
2018-07-12T17:28:19.772Z,34.70
2018-07-12T17:30:48.537Z,34.74
2018-07-12T17:33:17.162Z,35.33
2018-07-12T17:35:45.647Z,36.15
2018-07-12T17:38:14.090Z,36.08
2018-07-12T17:40:44.797Z,36.56
2018-07-12T17:43:13.445Z,37.49
2018-07-12T17:45:41.926Z,37.10
2018-07-12T17:48:11.557Z,37.36
2018-07-12T17:50:41.065Z,38.05
2018-07-12T17:53:09.533Z,38.15
2018-07-12T17:55:38.197Z,38.62
2018-07-12T17:58:06.897Z,39.36
2018-07-12T18:00:35.588Z,39.47
2018-07-12T18:03:04.277Z,39.10
2018-07-12T18:05:33.236Z,39.98
2018-07-12T18:08:01.705Z,39.72
2018-07-12T18:10:30.185Z,40.20
2018-07-12T18:12:59.105Z,40.43
2018-07-12T18:15:27.586Z,40.75
2018-07-12T18:17:56.057Z,41.02
2018-07-12T18:20:24.979Z,41.12
2018-07-12T18:22:53.653Z,40.67
2018-07-12T18:25:22.125Z,41.60
2018-07-12T18:27:50.753Z,41.64
2018-07-12T18:30:19.393Z,41.88
2018-07-12T18:32:47.853Z,42.40
2018-07-12T18:35:16.681Z,42.68
2018-07-12T18:37:45.449Z,43.05
2018-07-12T18:40:14.422Z,43.16
2018-07-12T18:42:43.441Z,43.38
2018-07-12T18:45:11.961Z,43.49
2018-07-12T18:47:40.856Z,43.84
2018-07-12T18:50:09.539Z,44.57
2018-07-12T18:52:38.003Z,44.80
2018-07-12T18:55:07.153Z,45.05
2018-07-12T18:57:36.034Z,45.15
2018-07-12T19:00:04.990Z,45.31
2018-07-12T19:02:34.388Z,45.03
2018-07-12T19:05:02.838Z,45.01
2018-07-12T19:07:31.286Z,45.30
2018-07-12T19:10:00.173Z,45.66
2018-07-12T19:12:29.077Z,46.10
2018-07-12T19:14:57.600Z,46.05
2018-07-12T19:17:26.338Z,46.13
2018-07-12T19:19:55.127Z,46.47
2018-07-12T19:22:23.577Z,46.87
2018-07-12T19:24:52.279Z,46.76
2018-07-12T19:27:21.141Z,47.20
2018-07-12T19:29:49.693Z,47.35
2018-07-12T19:32:18.130Z,47.57
2018-07-12T19:34:47.543Z,47.53
2018-07-12T19:37:16.003Z,47.81
2018-07-12T19:39:44.445Z,47.52
2018-07-12T19:42:13.305Z,47.69
2018-07-12T19:44:41.749Z,47.99
2018-07-12T19:47:10.665Z,48.32
2018-07-12T19:49:39.986Z,48.19
2018-07-12T19:52:08.833Z,48.43
2018-07-12T19:54:37.304Z,48.39
2018-07-12T19:57:06.147Z,48.30
2018-07-12T19:59:34.598Z,48.69
2018-07-12T20:02:03.053Z,48.92
2018-07-12T20:04:31.729Z,48.58
2018-07-12T20:07:00.181Z,49.05
2018-07-12T20:09:28.689Z,49.13
2018-07-12T20:11:57.529Z,49.25
2018-07-12T20:14:26.037Z,49.55
2018-07-12T20:16:54.484Z,49.54
2018-07-12T20:19:22.954Z,49.55
2018-07-12T20:21:51.905Z,49.16
2018-07-12T20:24:20.443Z,49.11
2018-07-12T20:26:49.335Z,49.19
2018-07-12T20:29:18.138Z,49.29
2018-07-12T20:31:46.569Z,49.47
2018-07-12T20:34:15.079Z,49.28
2018-07-12T20:36:43.862Z,49.27
2018-07-12T20:39:12.989Z,49.56
2018-07-12T20:41:41.806Z,49.69
2018-07-12T20:44:10.535Z,49.72
2018-07-12T20:46:38.980Z,49.57
2018-07-12T20:49:07.463Z,49.78
2018-07-12T20:51:36.284Z,49.80
2018-07-12T20:54:05.301Z,49.96
2018-07-12T20:56:34.180Z,50.40
2018-07-12T20:59:02.930Z,50.41
2018-07-12T21:01:31.709Z,50.41
2018-07-12T21:04:00.170Z,50.58
2018-07-12T21:06:29.181Z,50.71
2018-07-12T21:08:57.988Z,50.86
2018-07-12T21:11:26.585Z,51.07
2018-07-12T21:13:55.222Z,51.08
2018-07-12T21:16:24.045Z,51.01
2018-07-12T21:18:52.759Z,51.09
2018-07-12T21:21:21.451Z,51.32
2018-07-12T21:23:50.636Z,51.16
2018-07-12T21:26:19.097Z,51.39
2018-07-12T21:28:47.547Z,51.58
2018-07-12T21:31:15.986Z,51.55
2018-07-12T21:33:45.054Z,51.61
2018-07-12T21:36:13.856Z,52.04
2018-07-12T21:38:42.550Z,51.74
2018-07-12T21:41:11.450Z,51.86
2018-07-12T21:43:40.200Z,52.36
2018-07-12T21:46:08.929Z,52.63
2018-07-12T21:48:37.801Z,53.10
2018-07-12T21:51:06.597Z,53.69
2018-07-12T21:53:35.569Z,54.28
2018-07-12T21:56:04.791Z,54.21
2018-07-12T21:58:33.249Z,54.50
2018-07-12T22:01:01.978Z,54.74
2018-07-12T22:03:30.817Z,54.98
2018-07-12T22:05:59.261Z,54.96
2018-07-12T22:08:29.047Z,55.18
2018-07-12T22:11:00.128Z,55.60
2018-07-12T22:13:29.627Z,55.84
2018-07-12T22:15:58.158Z,56.22
2018-07-12T22:18:26.933Z,56.65
2018-07-12T22:20:55.405Z,56.20
2018-07-12T22:23:24.134Z,56.81
2018-07-12T22:25:53.061Z,56.56
2018-07-12T22:28:21.795Z,56.63
2018-07-12T22:30:50.457Z,56.89
2018-07-12T22:33:19.065Z,56.93
2018-07-12T22:35:47.812Z,56.97
2018-07-12T22:38:16.243Z,56.73
2018-07-12T22:40:44.745Z,56.83
2018-07-12T22:43:13.568Z,57.02
2018-07-12T22:45:42.019Z,56.54
2018-07-12T22:48:11.488Z,57.12
2018-07-12T22:50:40.245Z,56.58
2018-07-12T22:53:08.707Z,57.27
2018-07-12T22:55:37.509Z,56.70
2018-07-12T22:58:06.344Z,57.04
2018-07-12T23:00:34.996Z,57.49
2018-07-12T23:03:03.469Z,57.89
2018-07-12T23:05:31.930Z,57.86
2018-07-12T23:08:00.727Z,57.46
2018-07-12T23:10:29.910Z,57.43
2018-07-12T23:12:58.357Z,57.56
2018-07-12T23:15:28.089Z,58.00
2018-07-12T23:18:03.692Z,57.93
2018-07-12T23:20:32.214Z,58.05
2018-07-12T23:23:01.033Z,58.25
2018-07-12T23:25:29.757Z,58.00
2018-07-12T23:27:58.181Z,57.81
2018-07-12T23:30:26.906Z,58.18
2018-07-12T23:32:55.765Z,58.51
2018-07-12T23:35:24.210Z,59.21
2018-07-12T23:37:53.321Z,59.13
2018-07-12T23:40:22.137Z,59.42
2018-07-12T23:42:50.602Z,59.61
2018-07-12T23:45:19.046Z,59.38
2018-07-12T23:47:47.914Z,59.84
2018-07-12T23:50:16.684Z,59.50
2018-07-12T23:52:45.141Z,59.60
2018-07-12T23:55:14.270Z,59.81
2018-07-12T23:57:43.360Z,59.72
